sensor_id;sensor_type;location;lat;lon;timestamp;temperature;humidity
41939;DHT22;23057;48.554;14.454;2022-09-01T00:00:48;13.10;99.90
41939;DHT22;23057;48.554;14.454;2022-09-01T00:03:20;13.00;99.90
41939;DHT22;23057;48.554;14.454;2022-09-01T00:05:54;12.90;99.90
41939;DHT22;23057;48.554;14.454;2022-09-01T00:08:26;12.90;99.90
41939;DHT22;23057;48.554;14.454;2022-09-01T00:10:57;12.90;99.90
41939;DHT22;23057;48.554;14.454;2022-09-01T00:13:27;12.90;99.90
41939;DHT22;23057;48.554;14.454;2022-09-01T00:16:02;12.90;99.90
41939;DHT22;23057;48.554;14.454;2022-09-01T00:18:33;13.00;99.90
41939;DHT22;23057;48.554;14.454;2022-09-01T00:21:05;12.90;99.90
41939;DHT22;23057;48.554;14.454;2022-09-01T00:23:36;12.90;99.90
41939;DHT22;23057;48.554;14.454;2022-09-01T00:26:07;12.90;99.90
41939;DHT22;23057;48.554;14.454;2022-09-01T00:28:38;12.90;99.90
41939;DHT22;23057;48.554;14.454;2022-09-01T00:31:10;12.90;99.90
41939;DHT22;23057;48.554;14.454;2022-09-01T00:33:42;12.90;99.90
41939;DHT22;23057;48.554;14.454;2022-09-01T00:36:13;12.90;99.90
41939;DHT22;23057;48.554;14.454;2022-09-01T00:38:45;12.80;99.90
41939;DHT22;23057;48.554;14.454;2022-09-01T00:41:19;12.80;99.90
41939;DHT22;23057;48.554;14.454;2022-09-01T00:43:56;12.70;99.90
41939;DHT22;23057;48.554;14.454;2022-09-01T00:46:36;12.70;99.90
41939;DHT22;23057;48.554;14.454;2022-09-01T00:49:15;12.70;99.90
41939;DHT22;23057;48.554;14.454;2022-09-01T00:51:50;12.60;99.90
41939;DHT22;23057;48.554;14.454;2022-09-01T00:54:29;12.60;99.90
41939;DHT22;23057;48.554;14.454;2022-09-01T00:57:06;12.60;99.90
41939;DHT22;23057;48.554;14.454;2022-09-01T00:59:41;12.60;99.90
41939;DHT22;23057;48.554;14.454;2022-09-01T01:02:19;12.60;99.90
41939;DHT22;23057;48.554;14.454;2022-09-01T01:04:50;12.50;99.90
41939;DHT22;23057;48.554;14.454;2022-09-01T01:07:21;12.40;99.90
41939;DHT22;23057;48.554;14.454;2022-09-01T01:09:53;12.50;99.90
41939;DHT22;23057;48.554;14.454;2022-09-01T01:12:25;12.40;99.90
41939;DHT22;23057;48.554;14.454;2022-09-01T01:14:57;12.40;99.90
41939;DHT22;23057;48.554;14.454;2022-09-01T01:17:28;12.30;99.90
41939;DHT22;23057;48.554;14.454;2022-09-01T01:19:59;12.30;99.90
41939;DHT22;23057;48.554;14.454;2022-09-01T01:22:52;12.30;99.90
41939;DHT22;23057;48.554;14.454;2022-09-01T01:28:31;12.20;99.90
41939;DHT22;23057;48.554;14.454;2022-09-01T01:31:10;12.10;99.90
41939;DHT22;23057;48.554;14.454;2022-09-01T01:33:49;12.10;99.90
41939;DHT22;23057;48.554;14.454;2022-09-01T01:36:29;12.00;99.90
41939;DHT22;23057;48.554;14.454;2022-09-01T01:39:13;11.90;99.90
41939;DHT22;23057;48.554;14.454;2022-09-01T01:41:55;11.90;99.90
41939;DHT22;23057;48.554;14.454;2022-09-01T01:44:27;11.90;99.90
41939;DHT22;23057;48.554;14.454;2022-09-01T01:46:58;11.90;99.90
41939;DHT22;23057;48.554;14.454;2022-09-01T01:49:34;11.80;99.90
41939;DHT22;23057;48.554;14.454;2022-09-01T01:52:05;11.80;99.90
41939;DHT22;23057;48.554;14.454;2022-09-01T01:54:36;11.70;99.90
41939;DHT22;23057;48.554;14.454;2022-09-01T01:57:07;11.70;99.90
41939;DHT22;23057;48.554;14.454;2022-09-01T01:59:38;11.70;99.90
41939;DHT22;23057;48.554;14.454;2022-09-01T02:02:10;11.60;99.90
41939;DHT22;23057;48.554;14.454;2022-09-01T02:04:42;11.60;99.90
41939;DHT22;23057;48.554;14.454;2022-09-01T02:07:13;11.50;99.90
41939;DHT22;23057;48.554;14.454;2022-09-01T02:09:44;11.50;99.90
41939;DHT22;23057;48.554;14.454;2022-09-01T02:12:17;11.40;99.90
41939;DHT22;23057;48.554;14.454;2022-09-01T02:14:48;11.40;99.90
41939;DHT22;23057;48.554;14.454;2022-09-01T02:17:20;11.40;99.90
41939;DHT22;23057;48.554;14.454;2022-09-01T02:19:51;11.30;99.90
41939;DHT22;23057;48.554;14.454;2022-09-01T02:22:25;11.40;99.90
41939;DHT22;23057;48.554;14.454;2022-09-01T02:24:57;11.30;99.90
41939;DHT22;23057;48.554;14.454;2022-09-01T02:27:30;11.20;99.90
41939;DHT22;23057;48.554;14.454;2022-09-01T02:30:05;11.30;99.90
41939;DHT22;23057;48.554;14.454;2022-09-01T02:32:40;11.30;99.90
41939;DHT22;23057;48.554;14.454;2022-09-01T02:35:11;11.30;99.90
41939;DHT22;23057;48.554;14.454;2022-09-01T02:37:42;11.20;99.90
41939;DHT22;23057;48.554;14.454;2022-09-01T02:40:18;11.20;99.90
41939;DHT22;23057;48.554;14.454;2022-09-01T02:42:49;11.10;99.90
41939;DHT22;23057;48.554;14.454;2022-09-01T02:45:22;11.00;99.90
41939;DHT22;23057;48.554;14.454;2022-09-01T02:47:54;11.00;99.90
41939;DHT22;23057;48.554;14.454;2022-09-01T02:50:26;11.00;99.90
41939;DHT22;23057;48.554;14.454;2022-09-01T02:52:58;11.00;99.90
41939;DHT22;23057;48.554;14.454;2022-09-01T02:55:31;11.00;99.90
41939;DHT22;23057;48.554;14.454;2022-09-01T02:58:02;11.00;99.90
41939;DHT22;23057;48.554;14.454;2022-09-01T03:00:33;10.90;99.90
41939;DHT22;23057;48.554;14.454;2022-09-01T03:03:08;10.90;99.90
41939;DHT22;23057;48.554;14.454;2022-09-01T03:05:41;10.90;99.90
41939;DHT22;23057;48.554;14.454;2022-09-01T03:08:13;10.80;99.90
41939;DHT22;23057;48.554;14.454;2022-09-01T03:10:45;10.70;99.90
41939;DHT22;23057;48.554;14.454;2022-09-01T03:13:18;10.70;99.90
41939;DHT22;23057;48.554;14.454;2022-09-01T03:15:52;10.70;99.90
41939;DHT22;23057;48.554;14.454;2022-09-01T03:18:23;10.70;99.90
41939;DHT22;23057;48.554;14.454;2022-09-01T03:20:54;10.80;99.90
41939;DHT22;23057;48.554;14.454;2022-09-01T03:23:25;10.70;99.90
41939;DHT22;23057;48.554;14.454;2022-09-01T03:25:57;10.70;99.90
41939;DHT22;23057;48.554;14.454;2022-09-01T03:28:28;10.70;99.90
41939;DHT22;23057;48.554;14.454;2022-09-01T03:30:59;10.70;99.90
41939;DHT22;23057;48.554;14.454;2022-09-01T03:33:30;10.70;99.90
41939;DHT22;23057;48.554;14.454;2022-09-01T03:36:02;10.60;99.90
41939;DHT22;23057;48.554;14.454;2022-09-01T03:38:34;10.60;99.90
41939;DHT22;23057;48.554;14.454;2022-09-01T03:41:05;10.60;99.90
41939;DHT22;23057;48.554;14.454;2022-09-01T03:43:36;10.60;99.90
41939;DHT22;23057;48.554;14.454;2022-09-01T03:46:07;10.50;99.90
41939;DHT22;23057;48.554;14.454;2022-09-01T03:48:39;10.40;99.90
41939;DHT22;23057;48.554;14.454;2022-09-01T03:51:10;10.40;99.90
41939;DHT22;23057;48.554;14.454;2022-09-01T03:53:44;10.50;99.90
41939;DHT22;23057;48.554;14.454;2022-09-01T03:56:16;10.40;99.90
41939;DHT22;23057;48.554;14.454;2022-09-01T03:58:47;10.40;99.90
41939;DHT22;23057;48.554;14.454;2022-09-01T04:01:18;10.40;99.90
41939;DHT22;23057;48.554;14.454;2022-09-01T04:03:49;10.40;99.90
41939;DHT22;23057;48.554;14.454;2022-09-01T04:06:22;10.30;99.90
41939;DHT22;23057;48.554;14.454;2022-09-01T04:08:53;10.30;99.90
41939;DHT22;23057;48.554;14.454;2022-09-01T04:11:31;10.30;99.90
41939;DHT22;23057;48.554;14.454;2022-09-01T04:14:03;10.30;99.90
41939;DHT22;23057;48.554;14.454;2022-09-01T04:16:34;10.20;99.90
41939;DHT22;23057;48.554;14.454;2022-09-01T04:19:24;10.10;99.90
41939;DHT22;23057;48.554;14.454;2022-09-01T04:21:57;10.10;99.90
41939;DHT22;23057;48.554;14.454;2022-09-01T04:24:31;10.10;99.90
41939;DHT22;23057;48.554;14.454;2022-09-01T04:27:02;10.10;99.90
41939;DHT22;23057;48.554;14.454;2022-09-01T04:29:33;10.10;99.90
41939;DHT22;23057;48.554;14.454;2022-09-01T04:32:06;10.10;99.90
41939;DHT22;23057;48.554;14.454;2022-09-01T04:34:41;10.10;99.90
41939;DHT22;23057;48.554;14.454;2022-09-01T04:37:13;10.20;99.90
41939;DHT22;23057;48.554;14.454;2022-09-01T04:39:51;10.20;99.90
41939;DHT22;23057;48.554;14.454;2022-09-01T04:42:25;10.20;99.90
41939;DHT22;23057;48.554;14.454;2022-09-01T04:44:58;10.20;99.90
41939;DHT22;23057;48.554;14.454;2022-09-01T04:47:30;10.30;99.90
41939;DHT22;23057;48.554;14.454;2022-09-01T04:50:01;10.30;99.90
41939;DHT22;23057;48.554;14.454;2022-09-01T04:52:43;10.40;99.90
41939;DHT22;23057;48.554;14.454;2022-09-01T04:55:16;10.40;99.90
41939;DHT22;23057;48.554;14.454;2022-09-01T04:57:48;10.50;99.90
41939;DHT22;23057;48.554;14.454;2022-09-01T05:00:19;10.50;99.90
41939;DHT22;23057;48.554;14.454;2022-09-01T05:02:56;10.60;99.90
41939;DHT22;23057;48.554;14.454;2022-09-01T05:05:40;10.60;99.90
41939;DHT22;23057;48.554;14.454;2022-09-01T05:08:15;10.70;99.90
41939;DHT22;23057;48.554;14.454;2022-09-01T05:10:50;10.80;99.90
41939;DHT22;23057;48.554;14.454;2022-09-01T05:13:24;10.90;99.90
41939;DHT22;23057;48.554;14.454;2022-09-01T05:16:03;11.00;99.90
41939;DHT22;23057;48.554;14.454;2022-09-01T05:18:42;11.00;99.90
41939;DHT22;23057;48.554;14.454;2022-09-01T05:21:18;11.20;99.90
41939;DHT22;23057;48.554;14.454;2022-09-01T05:23:54;11.00;99.90
41939;DHT22;23057;48.554;14.454;2022-09-01T05:26:30;11.20;99.90
41939;DHT22;23057;48.554;14.454;2022-09-01T05:29:04;11.20;99.90
41939;DHT22;23057;48.554;14.454;2022-09-01T05:31:43;11.40;99.90
41939;DHT22;23057;48.554;14.454;2022-09-01T05:34:17;11.10;99.90
41939;DHT22;23057;48.554;14.454;2022-09-01T05:36:53;11.30;99.90
41939;DHT22;23057;48.554;14.454;2022-09-01T05:39:27;11.10;99.90
41939;DHT22;23057;48.554;14.454;2022-09-01T05:41:58;11.20;99.90
41939;DHT22;23057;48.554;14.454;2022-09-01T05:44:30;11.30;99.90
41939;DHT22;23057;48.554;14.454;2022-09-01T05:47:01;11.10;99.90
41939;DHT22;23057;48.554;14.454;2022-09-01T05:49:34;11.10;99.90
41939;DHT22;23057;48.554;14.454;2022-09-01T05:52:05;11.20;99.90
41939;DHT22;23057;48.554;14.454;2022-09-01T05:54:38;11.30;99.90
41939;DHT22;23057;48.554;14.454;2022-09-01T05:57:10;11.30;99.90
41939;DHT22;23057;48.554;14.454;2022-09-01T05:59:41;11.40;99.90
41939;DHT22;23057;48.554;14.454;2022-09-01T06:02:12;11.60;99.90
41939;DHT22;23057;48.554;14.454;2022-09-01T06:04:44;11.60;99.90
41939;DHT22;23057;48.554;14.454;2022-09-01T06:07:15;11.70;99.90
41939;DHT22;23057;48.554;14.454;2022-09-01T06:09:47;11.90;99.90
41939;DHT22;23057;48.554;14.454;2022-09-01T06:12:19;11.80;99.90
41939;DHT22;23057;48.554;14.454;2022-09-01T06:14:53;11.80;99.90
41939;DHT22;23057;48.554;14.454;2022-09-01T06:17:25;12.00;99.90
41939;DHT22;23057;48.554;14.454;2022-09-01T06:19:59;11.80;99.90
41939;DHT22;23057;48.554;14.454;2022-09-01T06:22:30;11.80;99.90
41939;DHT22;23057;48.554;14.454;2022-09-01T06:25:00;11.90;99.90
41939;DHT22;23057;48.554;14.454;2022-09-01T06:27:35;12.10;99.90
41939;DHT22;23057;48.554;14.454;2022-09-01T06:30:15;12.30;99.90
41939;DHT22;23057;48.554;14.454;2022-09-01T06:32:49;12.60;99.90
41939;DHT22;23057;48.554;14.454;2022-09-01T06:35:21;12.60;99.90
41939;DHT22;23057;48.554;14.454;2022-09-01T06:37:58;12.80;99.90
41939;DHT22;23057;48.554;14.454;2022-09-01T06:40:31;12.70;99.90
41939;DHT22;23057;48.554;14.454;2022-09-01T06:43:04;12.50;99.90
41939;DHT22;23057;48.554;14.454;2022-09-01T06:45:39;12.60;99.90
41939;DHT22;23057;48.554;14.454;2022-09-01T06:48:13;12.80;99.90
41939;DHT22;23057;48.554;14.454;2022-09-01T06:50:45;13.00;99.90
41939;DHT22;23057;48.554;14.454;2022-09-01T06:53:16;13.10;99.90
41939;DHT22;23057;48.554;14.454;2022-09-01T06:55:48;13.10;99.90
41939;DHT22;23057;48.554;14.454;2022-09-01T06:58:19;12.90;99.90
41939;DHT22;23057;48.554;14.454;2022-09-01T07:00:50;12.90;99.90
41939;DHT22;23057;48.554;14.454;2022-09-01T07:03:21;13.10;99.90
41939;DHT22;23057;48.554;14.454;2022-09-01T07:05:53;12.90;99.90
41939;DHT22;23057;48.554;14.454;2022-09-01T07:08:25;12.90;99.90
41939;DHT22;23057;48.554;14.454;2022-09-01T07:10:55;12.90;99.90
41939;DHT22;23057;48.554;14.454;2022-09-01T07:13:28;13.10;99.90
41939;DHT22;23057;48.554;14.454;2022-09-01T07:16:00;13.20;99.90
41939;DHT22;23057;48.554;14.454;2022-09-01T07:18:34;13.40;99.90
41939;DHT22;23057;48.554;14.454;2022-09-01T07:21:06;13.50;99.90
41939;DHT22;23057;48.554;14.454;2022-09-01T07:23:37;13.70;99.90
41939;DHT22;23057;48.554;14.454;2022-09-01T07:26:08;14.10;99.90
41939;DHT22;23057;48.554;14.454;2022-09-01T07:28:40;14.10;99.90
41939;DHT22;23057;48.554;14.454;2022-09-01T07:31:15;14.20;99.90
41939;DHT22;23057;48.554;14.454;2022-09-01T07:33:55;14.30;99.90
41939;DHT22;23057;48.554;14.454;2022-09-01T07:36:29;14.30;99.90
41939;DHT22;23057;48.554;14.454;2022-09-01T07:39:02;14.50;99.90
41939;DHT22;23057;48.554;14.454;2022-09-01T07:41:34;14.80;99.90
41939;DHT22;23057;48.554;14.454;2022-09-01T07:44:05;15.00;99.90
41939;DHT22;23057;48.554;14.454;2022-09-01T07:46:37;15.40;99.90
41939;DHT22;23057;48.554;14.454;2022-09-01T07:49:10;15.40;99.90
41939;DHT22;23057;48.554;14.454;2022-09-01T07:51:41;15.80;99.90
41939;DHT22;23057;48.554;14.454;2022-09-01T07:54:13;15.50;1.00
41939;DHT22;23057;48.554;14.454;2022-09-01T07:56:44;15.80;99.90
41939;DHT22;23057;48.554;14.454;2022-09-01T07:59:14;15.50;99.90
41939;DHT22;23057;48.554;14.454;2022-09-01T08:01:45;15.40;99.90
41939;DHT22;23057;48.554;14.454;2022-09-01T08:04:16;15.80;1.00
41939;DHT22;23057;48.554;14.454;2022-09-01T08:06:52;16.00;99.90
41939;DHT22;23057;48.554;14.454;2022-09-01T08:09:25;16.60;99.90
41939;DHT22;23057;48.554;14.454;2022-09-01T08:11:56;16.60;99.90
41939;DHT22;23057;48.554;14.454;2022-09-01T08:14:27;16.50;99.90
41939;DHT22;23057;48.554;14.454;2022-09-01T08:16:58;16.70;99.90
41939;DHT22;23057;48.554;14.454;2022-09-01T08:19:29;17.10;99.90
41939;DHT22;23057;48.554;14.454;2022-09-01T08:22:00;17.00;99.90
41939;DHT22;23057;48.554;14.454;2022-09-01T08:24:31;16.60;99.90
41939;DHT22;23057;48.554;14.454;2022-09-01T08:27:02;16.70;99.90
41939;DHT22;23057;48.554;14.454;2022-09-01T08:29:33;16.50;99.90
41939;DHT22;23057;48.554;14.454;2022-09-01T08:32:04;16.40;99.90
41939;DHT22;23057;48.554;14.454;2022-09-01T08:34:35;16.20;99.90
41939;DHT22;23057;48.554;14.454;2022-09-01T08:37:07;16.30;99.90
41939;DHT22;23057;48.554;14.454;2022-09-01T08:39:38;16.30;99.90
41939;DHT22;23057;48.554;14.454;2022-09-01T08:42:25;16.10;99.90
41939;DHT22;23057;48.554;14.454;2022-09-01T08:51:20;15.70;96.20
41939;DHT22;23057;48.554;14.454;2022-09-01T08:54:17;15.60;1.00
41939;DHT22;23057;48.554;14.454;2022-09-01T08:57:13;15.70;99.90
41939;DHT22;23057;48.554;14.454;2022-09-01T08:59:54;16.10;1.00
41939;DHT22;23057;48.554;14.454;2022-09-01T09:17:32;16.50;99.80
41939;DHT22;23057;48.554;14.454;2022-09-01T09:20:12;16.30;99.90
41939;DHT22;23057;48.554;14.454;2022-09-01T09:22:44;16.20;99.90
41939;DHT22;23057;48.554;14.454;2022-09-01T09:25:18;16.50;99.90
41939;DHT22;23057;48.554;14.454;2022-09-01T09:27:49;16.70;99.90
41939;DHT22;23057;48.554;14.454;2022-09-01T09:30:26;16.50;99.90
41939;DHT22;23057;48.554;14.454;2022-09-01T09:33:03;16.20;1.00
41939;DHT22;23057;48.554;14.454;2022-09-01T09:35:40;16.30;99.90
41939;DHT22;23057;48.554;14.454;2022-09-01T09:38:22;16.30;97.40
41939;DHT22;23057;48.554;14.454;2022-09-01T09:41:08;16.20;41.10
41939;DHT22;23057;48.554;14.454;2022-09-01T09:43:48;16.30;99.90
41939;DHT22;23057;48.554;14.454;2022-09-01T09:46:35;16.60;1.00
41939;DHT22;23057;48.554;14.454;2022-09-01T09:52:11;16.50;1.00
41939;DHT22;23057;48.554;14.454;2022-09-01T09:54:59;16.90;1.00
41939;DHT22;23057;48.554;14.454;2022-09-01T09:57:37;17.30;1.00
41939;DHT22;23057;48.554;14.454;2022-09-01T10:00:21;17.00;1.00
41939;DHT22;23057;48.554;14.454;2022-09-01T10:02:56;16.90;1.00
41939;DHT22;23057;48.554;14.454;2022-09-01T10:08:14;17.50;1.00
41939;DHT22;23057;48.554;14.454;2022-09-01T10:11:26;17.40;99.90
41939;DHT22;23057;48.554;14.454;2022-09-01T10:14:00;17.60;1.00
41939;DHT22;23057;48.554;14.454;2022-09-01T10:16:34;18.00;1.00
41939;DHT22;23057;48.554;14.454;2022-09-01T10:19:10;17.80;1.00
41939;DHT22;23057;48.554;14.454;2022-09-01T10:21:43;18.10;99.90
41939;DHT22;23057;48.554;14.454;2022-09-01T10:24:32;18.50;1.00
41939;DHT22;23057;48.554;14.454;2022-09-01T10:27:07;19.20;16.60
41939;DHT22;23057;48.554;14.454;2022-09-01T10:32:52;18.30;1.00
41939;DHT22;23057;48.554;14.454;2022-09-01T10:35:37;18.20;1.00
41939;DHT22;23057;48.554;14.454;2022-09-01T10:38:15;17.80;1.00
41939;DHT22;23057;48.554;14.454;2022-09-01T10:40:52;17.70;1.00
41939;DHT22;23057;48.554;14.454;2022-09-01T10:43:39;17.60;1.00
41939;DHT22;23057;48.554;14.454;2022-09-01T10:48:51;17.30;1.00
41939;DHT22;23057;48.554;14.454;2022-09-01T10:53:58;17.30;1.00
41939;DHT22;23057;48.554;14.454;2022-09-01T10:56:38;17.30;1.00
41939;DHT22;23057;48.554;14.454;2022-09-01T11:05:08;16.50;1.00
41939;DHT22;23057;48.554;14.454;2022-09-01T11:24:46;15.80;40.00
41939;DHT22;23057;48.554;14.454;2022-09-01T11:38:54;15.60;99.90
41939;DHT22;23057;48.554;14.454;2022-09-01T11:41:33;15.50;99.90
41939;DHT22;23057;48.554;14.454;2022-09-01T11:44:25;15.50;99.90
41939;DHT22;23057;48.554;14.454;2022-09-01T11:47:24;15.40;99.90
41939;DHT22;23057;48.554;14.454;2022-09-01T11:53:14;15.30;99.90
41939;DHT22;23057;48.554;14.454;2022-09-01T11:55:54;15.30;99.90
41939;DHT22;23057;48.554;14.454;2022-09-01T11:58:41;15.30;99.90
41939;DHT22;23057;48.554;14.454;2022-09-01T12:06:58;15.30;99.90
41939;DHT22;23057;48.554;14.454;2022-09-01T12:09:37;15.40;99.90
41939;DHT22;23057;48.554;14.454;2022-09-01T12:12:30;15.30;99.90
41939;DHT22;23057;48.554;14.454;2022-09-01T12:15:16;15.20;99.90
41939;DHT22;23057;48.554;14.454;2022-09-01T12:17:52;15.30;99.90
41939;DHT22;23057;48.554;14.454;2022-09-01T12:20:43;15.10;99.90
41939;DHT22;23057;48.554;14.454;2022-09-01T12:23:31;15.30;99.90
41939;DHT22;23057;48.554;14.454;2022-09-01T12:26:19;15.30;99.90
41939;DHT22;23057;48.554;14.454;2022-09-01T12:28:58;15.50;99.90
41939;DHT22;23057;48.554;14.454;2022-09-01T12:31:29;15.70;99.90
41939;DHT22;23057;48.554;14.454;2022-09-01T12:34:00;15.80;99.90
41939;DHT22;23057;48.554;14.454;2022-09-01T12:36:34;15.90;80.30
41939;DHT22;23057;48.554;14.454;2022-09-01T12:39:19;16.00;97.40
41939;DHT22;23057;48.554;14.454;2022-09-01T12:42:05;16.20;99.90
41939;DHT22;23057;48.554;14.454;2022-09-01T12:45:01;16.20;44.60
41939;DHT22;23057;48.554;14.454;2022-09-01T12:52:51;16.10;23.80
41939;DHT22;23057;48.554;14.454;2022-09-01T12:55:30;16.10;1.00
41939;DHT22;23057;48.554;14.454;2022-09-01T12:58:06;16.20;1.00
41939;DHT22;23057;48.554;14.454;2022-09-01T13:03:28;16.20;1.00
41939;DHT22;23057;48.554;14.454;2022-09-01T13:06:01;16.50;1.00
41939;DHT22;23057;48.554;14.454;2022-09-01T13:08:33;16.30;1.00
41939;DHT22;23057;48.554;14.454;2022-09-01T13:11:12;16.30;1.00
41939;DHT22;23057;48.554;14.454;2022-09-01T13:13:47;16.30;1.00
41939;DHT22;23057;48.554;14.454;2022-09-01T13:16:18;16.40;1.00
41939;DHT22;23057;48.554;14.454;2022-09-01T13:18:49;16.50;1.00
41939;DHT22;23057;48.554;14.454;2022-09-01T13:21:19;16.70;1.00
41939;DHT22;23057;48.554;14.454;2022-09-01T13:23:51;16.40;1.00
41939;DHT22;23057;48.554;14.454;2022-09-01T13:26:21;16.50;1.00
41939;DHT22;23057;48.554;14.454;2022-09-01T13:28:53;16.50;1.00
41939;DHT22;23057;48.554;14.454;2022-09-01T13:31:24;16.30;1.00
41939;DHT22;23057;48.554;14.454;2022-09-01T13:33:55;16.20;1.00
41939;DHT22;23057;48.554;14.454;2022-09-01T13:36:26;16.30;1.00
41939;DHT22;23057;48.554;14.454;2022-09-01T13:38:57;16.40;1.00
41939;DHT22;23057;48.554;14.454;2022-09-01T13:41:27;16.40;1.00
41939;DHT22;23057;48.554;14.454;2022-09-01T13:44:00;16.40;1.00
41939;DHT22;23057;48.554;14.454;2022-09-01T13:46:31;16.20;1.00
41939;DHT22;23057;48.554;14.454;2022-09-01T13:49:02;16.20;28.50
41939;DHT22;23057;48.554;14.454;2022-09-01T13:51:33;16.10;1.00
41939;DHT22;23057;48.554;14.454;2022-09-01T13:54:05;16.00;1.00
41939;DHT22;23057;48.554;14.454;2022-09-01T13:56:36;15.90;14.20
41939;DHT22;23057;48.554;14.454;2022-09-01T13:59:09;16.00;2.90
41939;DHT22;23057;48.554;14.454;2022-09-01T14:01:40;16.00;99.90
41939;DHT22;23057;48.554;14.454;2022-09-01T14:04:12;16.00;99.90
41939;DHT22;23057;48.554;14.454;2022-09-01T14:06:43;16.00;99.90
41939;DHT22;23057;48.554;14.454;2022-09-01T14:09:14;16.00;99.90
41939;DHT22;23057;48.554;14.454;2022-09-01T14:11:45;16.00;99.90
41939;DHT22;23057;48.554;14.454;2022-09-01T14:14:16;16.10;99.90
41939;DHT22;23057;48.554;14.454;2022-09-01T14:16:48;16.20;99.90
41939;DHT22;23057;48.554;14.454;2022-09-01T14:19:18;16.20;99.90
41939;DHT22;23057;48.554;14.454;2022-09-01T14:21:49;16.20;99.90
41939;DHT22;23057;48.554;14.454;2022-09-01T14:24:21;16.10;99.90
41939;DHT22;23057;48.554;14.454;2022-09-01T14:26:52;16.00;76.50
41939;DHT22;23057;48.554;14.454;2022-09-01T14:29:23;16.00;87.20
41939;DHT22;23057;48.554;14.454;2022-09-01T14:31:54;15.90;1.00
41939;DHT22;23057;48.554;14.454;2022-09-01T14:34:26;15.90;8.60
41939;DHT22;23057;48.554;14.454;2022-09-01T14:36:57;15.80;1.00
41939;DHT22;23057;48.554;14.454;2022-09-01T14:39:28;15.80;45.00
41939;DHT22;23057;48.554;14.454;2022-09-01T14:42:00;15.80;81.90
41939;DHT22;23057;48.554;14.454;2022-09-01T14:44:30;15.80;91.00
41939;DHT22;23057;48.554;14.454;2022-09-01T14:47:03;15.80;99.90
41939;DHT22;23057;48.554;14.454;2022-09-01T14:49:35;15.70;99.90
41939;DHT22;23057;48.554;14.454;2022-09-01T14:52:06;15.70;99.90
41939;DHT22;23057;48.554;14.454;2022-09-01T14:54:38;15.80;99.90
41939;DHT22;23057;48.554;14.454;2022-09-01T14:57:12;15.70;99.90
41939;DHT22;23057;48.554;14.454;2022-09-01T14:59:43;15.80;99.90
41939;DHT22;23057;48.554;14.454;2022-09-01T15:02:14;15.80;99.90
41939;DHT22;23057;48.554;14.454;2022-09-01T15:04:45;15.70;99.90
41939;DHT22;23057;48.554;14.454;2022-09-01T15:07:16;15.70;99.90
41939;DHT22;23057;48.554;14.454;2022-09-01T15:09:47;15.70;99.90
41939;DHT22;23057;48.554;14.454;2022-09-01T15:12:18;15.70;99.90
41939;DHT22;23057;48.554;14.454;2022-09-01T15:14:49;15.70;99.90
41939;DHT22;23057;48.554;14.454;2022-09-01T15:17:20;15.70;99.90
41939;DHT22;23057;48.554;14.454;2022-09-01T15:19:51;15.70;99.90
41939;DHT22;23057;48.554;14.454;2022-09-01T15:22:22;15.70;99.90
41939;DHT22;23057;48.554;14.454;2022-09-01T15:24:53;15.70;99.90
41939;DHT22;23057;48.554;14.454;2022-09-01T15:27:23;15.80;99.90
41939;DHT22;23057;48.554;14.454;2022-09-01T15:29:54;15.80;99.90
41939;DHT22;23057;48.554;14.454;2022-09-01T15:32:25;15.70;99.90
41939;DHT22;23057;48.554;14.454;2022-09-01T15:34:56;15.80;99.90
41939;DHT22;23057;48.554;14.454;2022-09-01T15:37:27;15.80;99.90
41939;DHT22;23057;48.554;14.454;2022-09-01T15:39:58;15.70;99.90
41939;DHT22;23057;48.554;14.454;2022-09-01T15:42:29;15.70;99.90
41939;DHT22;23057;48.554;14.454;2022-09-01T15:45:04;15.70;99.90
41939;DHT22;23057;48.554;14.454;2022-09-01T15:47:39;15.80;99.90
41939;DHT22;23057;48.554;14.454;2022-09-01T15:50:11;15.70;99.90
41939;DHT22;23057;48.554;14.454;2022-09-01T15:52:58;15.70;99.90
41939;DHT22;23057;48.554;14.454;2022-09-01T15:55:45;15.80;99.90
41939;DHT22;23057;48.554;14.454;2022-09-01T15:58:18;15.80;99.90
41939;DHT22;23057;48.554;14.454;2022-09-01T16:00:49;15.80;99.90
41939;DHT22;23057;48.554;14.454;2022-09-01T16:03:20;16.00;1.00
41939;DHT22;23057;48.554;14.454;2022-09-01T16:05:53;16.00;1.00
41939;DHT22;23057;48.554;14.454;2022-09-01T16:08:23;16.00;1.00
41939;DHT22;23057;48.554;14.454;2022-09-01T16:10:54;16.00;1.00
41939;DHT22;23057;48.554;14.454;2022-09-01T16:13:25;16.00;1.00
41939;DHT22;23057;48.554;14.454;2022-09-01T16:16:21;16.00;1.00
41939;DHT22;23057;48.554;14.454;2022-09-01T16:22:26;16.00;1.00
41939;DHT22;23057;48.554;14.454;2022-09-01T16:25:22;16.00;1.00
41939;DHT22;23057;48.554;14.454;2022-09-01T16:28:00;16.00;1.00
41939;DHT22;23057;48.554;14.454;2022-09-01T16:30:42;15.80;1.00
41939;DHT22;23057;48.554;14.454;2022-09-01T16:33:16;15.70;1.00
41939;DHT22;23057;48.554;14.454;2022-09-01T16:39:10;15.60;1.00
41939;DHT22;23057;48.554;14.454;2022-09-01T16:48:03;15.50;99.90
41939;DHT22;23057;48.554;14.454;2022-09-01T16:56:20;15.40;99.90
41939;DHT22;23057;48.554;14.454;2022-09-01T17:13:50;15.30;99.90
41939;DHT22;23057;48.554;14.454;2022-09-01T17:16:32;15.30;99.90
41939;DHT22;23057;48.554;14.454;2022-09-01T17:19:15;15.30;99.90
41939;DHT22;23057;48.554;14.454;2022-09-01T17:21:55;15.20;99.90
41939;DHT22;23057;48.554;14.454;2022-09-01T17:24:42;15.30;99.90
41939;DHT22;23057;48.554;14.454;2022-09-01T17:29:51;15.20;99.90
41939;DHT22;23057;48.554;14.454;2022-09-01T17:35:26;15.00;99.90
41939;DHT22;23057;48.554;14.454;2022-09-01T17:44:00;14.80;99.90
41939;DHT22;23057;48.554;14.454;2022-09-01T17:47:25;14.70;99.90
41939;DHT22;23057;48.554;14.454;2022-09-01T17:59:22;14.70;54.40
41939;DHT22;23057;48.554;14.454;2022-09-01T18:05:19;14.70;1.00
41939;DHT22;23057;48.554;14.454;2022-09-01T18:10:39;14.60;99.90
41939;DHT22;23057;48.554;14.454;2022-09-01T18:16:22;14.50;1.00
41939;DHT22;23057;48.554;14.454;2022-09-01T18:19:02;14.50;1.00
41939;DHT22;23057;48.554;14.454;2022-09-01T18:21:44;14.40;58.10
41939;DHT22;23057;48.554;14.454;2022-09-01T18:26:56;14.40;99.90
41939;DHT22;23057;48.554;14.454;2022-09-01T18:29:27;14.40;99.90
41939;DHT22;23057;48.554;14.454;2022-09-01T18:32:10;14.40;99.90
41939;DHT22;23057;48.554;14.454;2022-09-01T18:47:35;14.20;99.90
41939;DHT22;23057;48.554;14.454;2022-09-01T18:50:33;14.20;99.90
41939;DHT22;23057;48.554;14.454;2022-09-01T18:53:27;14.20;99.90